sensor_id;sensor_type;location;lat;lon;timestamp;pressure;altitude;pressure_sealevel;temperature;humidity
55990;BME280;41875;55.806;38.082;2023-01-19T00:00:53;99178.19;;;2.16;69.61
55990;BME280;41875;55.806;38.082;2023-01-19T00:03:21;99169.50;;;2.15;69.06
55990;BME280;41875;55.806;38.082;2023-01-19T00:05:50;99157.28;;;2.16;69.24
55990;BME280;41875;55.806;38.082;2023-01-19T00:08:18;99160.53;;;2.06;69.64
55990;BME280;41875;55.806;38.082;2023-01-19T00:10:48;99134.41;;;2.06;69.47
55990;BME280;41875;55.806;38.082;2023-01-19T00:13:19;99168.19;;;2.21;68.79
55990;BME280;41875;55.806;38.082;2023-01-19T00:15:47;99150.22;;;2.05;69.28
55990;BME280;41875;55.806;38.082;2023-01-19T00:18:15;99148.44;;;2.05;69.09
55990;BME280;41875;55.806;38.082;2023-01-19T00:20:44;99129.72;;;1.87;69.61
55990;BME280;41875;55.806;38.082;2023-01-19T00:23:12;99142.50;;;2.03;69.74
55990;BME280;41875;55.806;38.082;2023-01-19T00:25:40;99155.00;;;2.11;69.36
55990;BME280;41875;55.806;38.082;2023-01-19T00:28:09;99150.03;;;2.19;68.74
55990;BME280;41875;55.806;38.082;2023-01-19T00:30:39;99141.50;;;2.28;68.29
55990;BME280;41875;55.806;38.082;2023-01-19T00:33:07;99131.66;;;2.32;68.05
55990;BME280;41875;55.806;38.082;2023-01-19T00:35:36;99133.44;;;1.96;69.71
55990;BME280;41875;55.806;38.082;2023-01-19T00:38:04;99122.94;;;2.09;69.52
55990;BME280;41875;55.806;38.082;2023-01-19T00:40:32;99121.72;;;2.02;69.27
55990;BME280;41875;55.806;38.082;2023-01-19T00:43:00;99118.53;;;2.09;69.43
55990;BME280;41875;55.806;38.082;2023-01-19T00:45:29;99102.63;;;2.12;69.03
55990;BME280;41875;55.806;38.082;2023-01-19T00:47:59;99107.84;;;2.12;69.01
55990;BME280;41875;55.806;38.082;2023-01-19T00:50:28;99110.31;;;1.67;70.93
55990;BME280;41875;55.806;38.082;2023-01-19T00:52:56;99112.41;;;1.97;69.91
55990;BME280;41875;55.806;38.082;2023-01-19T00:55:27;99116.75;;;1.50;71.24
55990;BME280;41875;55.806;38.082;2023-01-19T00:57:55;99132.25;;;1.89;70.34
55990;BME280;41875;55.806;38.082;2023-01-19T01:00:24;99120.63;;;1.68;70.97
55990;BME280;41875;55.806;38.082;2023-01-19T01:02:52;99117.19;;;2.04;70.00
55990;BME280;41875;55.806;38.082;2023-01-19T01:05:22;99107.75;;;1.90;70.22
55990;BME280;41875;55.806;38.082;2023-01-19T01:07:50;99139.06;;;1.78;70.39
55990;BME280;41875;55.806;38.082;2023-01-19T01:10:19;99121.81;;;1.89;70.39
55990;BME280;41875;55.806;38.082;2023-01-19T01:12:48;99123.09;;;2.30;68.98
55990;BME280;41875;55.806;38.082;2023-01-19T01:15:24;99119.38;;;2.21;68.90
55990;BME280;41875;55.806;38.082;2023-01-19T01:17:53;99126.16;;;1.88;70.72
55990;BME280;41875;55.806;38.082;2023-01-19T01:20:23;99127.22;;;2.21;69.18
55990;BME280;41875;55.806;38.082;2023-01-19T01:22:54;99104.00;;;2.05;68.88
55990;BME280;41875;55.806;38.082;2023-01-19T01:25:24;99097.38;;;1.65;70.74
55990;BME280;41875;55.806;38.082;2023-01-19T01:27:53;99100.41;;;1.83;70.46
55990;BME280;41875;55.806;38.082;2023-01-19T01:30:21;99087.72;;;1.55;70.88
55990;BME280;41875;55.806;38.082;2023-01-19T01:32:50;99109.00;;;1.97;70.08
55990;BME280;41875;55.806;38.082;2023-01-19T01:35:18;99101.31;;;1.71;69.68
55990;BME280;41875;55.806;38.082;2023-01-19T01:37:47;99102.09;;;1.60;71.42
55990;BME280;41875;55.806;38.082;2023-01-19T01:40:16;99107.84;;;2.12;69.78
55990;BME280;41875;55.806;38.082;2023-01-19T01:42:44;99092.75;;;2.16;69.02
55990;BME280;41875;55.806;38.082;2023-01-19T01:45:24;99103.16;;;1.93;69.46
55990;BME280;41875;55.806;38.082;2023-01-19T01:47:56;99111.97;;;1.44;71.99
55990;BME280;41875;55.806;38.082;2023-01-19T01:50:27;99090.00;;;1.71;70.25
55990;BME280;41875;55.806;38.082;2023-01-19T01:52:58;99107.69;;;2.03;69.79
55990;BME280;41875;55.806;38.082;2023-01-19T01:55:33;99128.16;;;2.09;69.90
55990;BME280;41875;55.806;38.082;2023-01-19T01:58:03;99101.06;;;1.74;70.32
55990;BME280;41875;55.806;38.082;2023-01-19T02:00:32;99125.81;;;2.28;68.74
55990;BME280;41875;55.806;38.082;2023-01-19T02:03:21;99120.31;;;1.73;70.26
55990;BME280;41875;55.806;38.082;2023-01-19T02:05:49;99107.91;;;2.00;70.11
55990;BME280;41875;55.806;38.082;2023-01-19T02:08:22;99124.34;;;2.13;69.07
55990;BME280;41875;55.806;38.082;2023-01-19T02:11:10;99104.66;;;1.73;70.18
55990;BME280;41875;55.806;38.082;2023-01-19T02:13:56;99094.63;;;2.03;69.64
55990;BME280;41875;55.806;38.082;2023-01-19T02:16:24;99113.91;;;1.53;71.32
55990;BME280;41875;55.806;38.082;2023-01-19T02:18:53;99134.56;;;1.80;70.12
55990;BME280;41875;55.806;38.082;2023-01-19T02:21:21;99132.13;;;1.90;69.23
55990;BME280;41875;55.806;38.082;2023-01-19T02:23:52;99118.94;;;1.92;69.03
55990;BME280;41875;55.806;38.082;2023-01-19T02:26:22;99128.44;;;1.93;69.22
55990;BME280;41875;55.806;38.082;2023-01-19T02:28:51;99121.25;;;1.72;69.05
55990;BME280;41875;55.806;38.082;2023-01-19T02:31:20;99131.31;;;1.65;69.86
55990;BME280;41875;55.806;38.082;2023-01-19T02:33:48;99110.69;;;1.49;70.11
55990;BME280;41875;55.806;38.082;2023-01-19T02:36:20;99104.13;;;1.44;70.14
55990;BME280;41875;55.806;38.082;2023-01-19T02:38:49;99094.09;;;1.50;69.86
55990;BME280;41875;55.806;38.082;2023-01-19T02:41:20;99070.34;;;1.05;70.79
55990;BME280;41875;55.806;38.082;2023-01-19T02:43:50;99077.81;;;1.23;69.85
55990;BME280;41875;55.806;38.082;2023-01-19T02:46:19;99108.47;;;1.56;69.40
55990;BME280;41875;55.806;38.082;2023-01-19T02:48:47;99094.63;;;1.67;68.31
55990;BME280;41875;55.806;38.082;2023-01-19T02:51:16;99092.03;;;1.67;68.19
55990;BME280;41875;55.806;38.082;2023-01-19T02:53:52;99087.16;;;1.38;69.44
55990;BME280;41875;55.806;38.082;2023-01-19T02:56:32;99106.16;;;1.03;69.02
55990;BME280;41875;55.806;38.082;2023-01-19T02:59:03;99115.34;;;1.81;67.59
55990;BME280;41875;55.806;38.082;2023-01-19T03:01:36;99118.25;;;1.41;68.34
55990;BME280;41875;55.806;38.082;2023-01-19T03:04:10;99139.75;;;1.45;69.31
55990;BME280;41875;55.806;38.082;2023-01-19T03:06:41;99146.84;;;1.91;67.27
55990;BME280;41875;55.806;38.082;2023-01-19T03:09:13;99137.69;;;1.61;67.46
55990;BME280;41875;55.806;38.082;2023-01-19T03:11:49;99136.56;;;1.52;68.56
55990;BME280;41875;55.806;38.082;2023-01-19T03:14:19;99124.81;;;1.71;67.53
55990;BME280;41875;55.806;38.082;2023-01-19T03:16:50;99126.91;;;1.04;69.58
55990;BME280;41875;55.806;38.082;2023-01-19T03:19:21;99125.19;;;1.16;70.19
55990;BME280;41875;55.806;38.082;2023-01-19T03:21:51;99123.88;;;1.11;69.54
55990;BME280;41875;55.806;38.082;2023-01-19T03:24:20;99118.66;;;1.11;69.40
55990;BME280;41875;55.806;38.082;2023-01-19T03:26:52;99115.81;;;1.27;68.71
55990;BME280;41875;55.806;38.082;2023-01-19T03:29:22;99108.97;;;1.37;68.10
55990;BME280;41875;55.806;38.082;2023-01-19T03:31:51;99127.63;;;1.44;67.77
55990;BME280;41875;55.806;38.082;2023-01-19T03:34:20;99118.66;;;1.72;66.99
55990;BME280;41875;55.806;38.082;2023-01-19T03:36:50;99114.91;;;1.39;68.01
55990;BME280;41875;55.806;38.082;2023-01-19T03:39:20;99126.56;;;1.46;67.56
55990;BME280;41875;55.806;38.082;2023-01-19T03:41:50;99121.56;;;1.19;68.29
55990;BME280;41875;55.806;38.082;2023-01-19T03:44:19;99115.06;;;1.25;68.52
55990;BME280;41875;55.806;38.082;2023-01-19T03:46:48;99120.25;;;1.00;68.86
55990;BME280;41875;55.806;38.082;2023-01-19T03:49:16;99135.97;;;1.49;67.60
55990;BME280;41875;55.806;38.082;2023-01-19T03:51:44;99143.03;;;1.23;68.40
55990;BME280;41875;55.806;38.082;2023-01-19T03:54:15;99163.25;;;0.95;68.98
55990;BME280;41875;55.806;38.082;2023-01-19T03:56:43;99151.00;;;1.45;67.81
55990;BME280;41875;55.806;38.082;2023-01-19T03:59:12;99149.94;;;1.24;68.29
55990;BME280;41875;55.806;38.082;2023-01-19T04:01:43;99176.63;;;1.40;67.70
55990;BME280;41875;55.806;38.082;2023-01-19T04:04:11;99180.00;;;1.16;68.17
55990;BME280;41875;55.806;38.082;2023-01-19T04:06:41;99190.66;;;1.13;69.25
55990;BME280;41875;55.806;38.082;2023-01-19T04:09:09;99179.25;;;1.14;69.07
55990;BME280;41875;55.806;38.082;2023-01-19T04:11:37;99170.41;;;1.54;67.64
55990;BME280;41875;55.806;38.082;2023-01-19T04:14:05;99166.94;;;1.29;68.81
55990;BME280;41875;55.806;38.082;2023-01-19T04:16:35;99163.75;;;1.50;68.22
55990;BME280;41875;55.806;38.082;2023-01-19T04:19:03;99184.88;;;1.34;68.50
55990;BME280;41875;55.806;38.082;2023-01-19T04:21:31;99164.56;;;1.50;68.18
55990;BME280;41875;55.806;38.082;2023-01-19T04:24:00;99167.47;;;1.83;67.07
55990;BME280;41875;55.806;38.082;2023-01-19T04:26:28;99188.13;;;1.62;68.35
55990;BME280;41875;55.806;38.082;2023-01-19T04:28:56;99178.22;;;1.54;68.48
55990;BME280;41875;55.806;38.082;2023-01-19T04:31:25;99142.84;;;1.13;69.99
55990;BME280;41875;55.806;38.082;2023-01-19T04:33:55;99214.44;;;1.34;70.52
55990;BME280;41875;55.806;38.082;2023-01-19T04:36:23;99208.06;;;1.63;69.26
55990;BME280;41875;55.806;38.082;2023-01-19T04:38:52;99213.25;;;1.39;69.86
55990;BME280;41875;55.806;38.082;2023-01-19T04:41:20;99212.72;;;1.83;68.58
55990;BME280;41875;55.806;38.082;2023-01-19T04:43:48;99200.75;;;1.68;69.51
55990;BME280;41875;55.806;38.082;2023-01-19T04:46:16;99208.69;;;1.91;68.23
55990;BME280;41875;55.806;38.082;2023-01-19T04:48:45;99224.06;;;1.58;68.97
55990;BME280;41875;55.806;38.082;2023-01-19T04:51:14;99214.13;;;1.63;69.48
55990;BME280;41875;55.806;38.082;2023-01-19T04:53:42;99211.88;;;1.46;70.13
55990;BME280;41875;55.806;38.082;2023-01-19T04:56:10;99215.53;;;1.80;68.87
55990;BME280;41875;55.806;38.082;2023-01-19T04:58:39;99230.59;;;1.77;69.49
55990;BME280;41875;55.806;38.082;2023-01-19T05:01:07;99229.34;;;1.70;69.34
55990;BME280;41875;55.806;38.082;2023-01-19T05:03:35;99216.78;;;1.88;68.93
55990;BME280;41875;55.806;38.082;2023-01-19T05:06:03;99213.34;;;1.98;69.03
55990;BME280;41875;55.806;38.082;2023-01-19T05:08:33;99218.19;;;1.67;69.79
55990;BME280;41875;55.806;38.082;2023-01-19T05:11:01;99207.34;;;1.24;71.45
55990;BME280;41875;55.806;38.082;2023-01-19T05:13:29;99193.09;;;1.78;69.97
55990;BME280;41875;55.806;38.082;2023-01-19T05:15:59;99196.34;;;1.93;69.56
55990;BME280;41875;55.806;38.082;2023-01-19T05:18:27;99197.25;;;1.80;69.93
55990;BME280;41875;55.806;38.082;2023-01-19T05:20:55;99203.19;;;1.58;70.42
55990;BME280;41875;55.806;38.082;2023-01-19T05:23:23;99207.50;;;2.08;69.34
55990;BME280;41875;55.806;38.082;2023-01-19T05:25:53;99213.13;;;1.77;69.86
55990;BME280;41875;55.806;38.082;2023-01-19T05:28:22;99225.31;;;1.90;70.06
55990;BME280;41875;55.806;38.082;2023-01-19T05:30:50;99229.50;;;2.52;68.34
55990;BME280;41875;55.806;38.082;2023-01-19T05:33:18;99237.78;;;2.46;68.32
55990;BME280;41875;55.806;38.082;2023-01-19T05:35:48;99240.72;;;2.30;68.93
55990;BME280;41875;55.806;38.082;2023-01-19T05:38:16;99242.00;;;2.24;68.67
55990;BME280;41875;55.806;38.082;2023-01-19T05:40:56;99251.78;;;2.69;67.23
55990;BME280;41875;55.806;38.082;2023-01-19T05:43:25;99247.88;;;2.39;68.41
55990;BME280;41875;55.806;38.082;2023-01-19T05:45:53;99243.25;;;2.43;68.01
55990;BME280;41875;55.806;38.082;2023-01-19T05:48:21;99256.13;;;2.57;67.79
55990;BME280;41875;55.806;38.082;2023-01-19T05:50:49;99242.00;;;2.24;68.41
55990;BME280;41875;55.806;38.082;2023-01-19T05:53:17;99254.13;;;2.61;67.68
55990;BME280;41875;55.806;38.082;2023-01-19T05:55:46;99259.94;;;2.53;67.71
55990;BME280;41875;55.806;38.082;2023-01-19T05:58:15;99260.47;;;2.81;67.06
55990;BME280;41875;55.806;38.082;2023-01-19T06:00:43;99270.03;;;2.58;67.88
55990;BME280;41875;55.806;38.082;2023-01-19T06:03:11;99264.16;;;2.43;68.20
55990;BME280;41875;55.806;38.082;2023-01-19T06:05:40;99267.81;;;2.29;68.09
55990;BME280;41875;55.806;38.082;2023-01-19T06:08:08;99278.31;;;2.16;69.33
55990;BME280;41875;55.806;38.082;2023-01-19T06:10:36;99269.63;;;2.40;68.73
55990;BME280;41875;55.806;38.082;2023-01-19T06:13:04;99282.59;;;2.41;69.45
55990;BME280;41875;55.806;38.082;2023-01-19T06:15:34;99287.44;;;2.35;68.65
55990;BME280;41875;55.806;38.082;2023-01-19T06:18:03;99291.50;;;2.74;68.08
55990;BME280;41875;55.806;38.082;2023-01-19T06:20:31;99312.09;;;2.79;67.33
55990;BME280;41875;55.806;38.082;2023-01-19T06:22:59;99312.63;;;2.36;69.00
55990;BME280;41875;55.806;38.082;2023-01-19T06:25:28;99304.81;;;2.47;68.41
55990;BME280;41875;55.806;38.082;2023-01-19T06:27:56;99311.72;;;2.48;68.33
55990;BME280;41875;55.806;38.082;2023-01-19T06:30:24;99321.25;;;2.49;68.71
55990;BME280;41875;55.806;38.082;2023-01-19T06:32:54;99299.00;;;2.19;69.45
55990;BME280;41875;55.806;38.082;2023-01-19T06:35:22;99317.56;;;2.27;70.34
55990;BME280;41875;55.806;38.082;2023-01-19T06:37:51;99324.06;;;2.46;68.92
55990;BME280;41875;55.806;38.082;2023-01-19T06:40:19;99332.66;;;1.87;71.30
55990;BME280;41875;55.806;38.082;2023-01-19T06:42:47;99335.84;;;2.03;70.83
55990;BME280;41875;55.806;38.082;2023-01-19T06:45:15;99318.00;;;2.21;70.08
55990;BME280;41875;55.806;38.082;2023-01-19T06:47:45;99327.47;;;2.35;69.66
55990;BME280;41875;55.806;38.082;2023-01-19T06:50:15;99333.91;;;3.02;67.91
55990;BME280;41875;55.806;38.082;2023-01-19T06:52:43;99319.34;;;2.76;68.49
55990;BME280;41875;55.806;38.082;2023-01-19T06:55:12;99323.13;;;2.71;68.59
55990;BME280;41875;55.806;38.082;2023-01-19T06:57:40;99319.78;;;2.45;69.64
55990;BME280;41875;55.806;38.082;2023-01-19T07:00:10;99315.31;;;1.60;72.96
55990;BME280;41875;55.806;38.082;2023-01-19T07:02:39;99318.63;;;2.49;70.19
55990;BME280;41875;55.806;38.082;2023-01-19T07:06:23;99327.53;;;2.71;69.60
55990;BME280;41875;55.806;38.082;2023-01-19T07:08:52;99312.03;;;2.32;69.97
55990;BME280;41875;55.806;38.082;2023-01-19T07:11:21;99335.13;;;2.01;72.11
55990;BME280;41875;55.806;38.082;2023-01-19T07:13:58;99335.06;;;2.14;72.17
55990;BME280;41875;55.806;38.082;2023-01-19T07:16:27;99331.03;;;2.34;71.49
55990;BME280;41875;55.806;38.082;2023-01-19T07:18:56;99310.50;;;1.66;73.70
55990;BME280;41875;55.806;38.082;2023-01-19T07:21:25;99310.63;;;1.65;73.96
55990;BME280;41875;55.806;38.082;2023-01-19T07:23:55;99330.84;;;2.00;73.36
55990;BME280;41875;55.806;38.082;2023-01-19T07:26:24;99341.53;;;2.21;72.16
55990;BME280;41875;55.806;38.082;2023-01-19T07:28:54;99344.41;;;2.29;72.22
55990;BME280;41875;55.806;38.082;2023-01-19T07:31:23;99337.75;;;2.25;71.62
55990;BME280;41875;55.806;38.082;2023-01-19T07:33:52;99346.69;;;2.58;70.79
55990;BME280;41875;55.806;38.082;2023-01-19T07:36:20;99353.53;;;2.24;72.37
55990;BME280;41875;55.806;38.082;2023-01-19T07:38:50;99337.31;;;2.32;71.90
55990;BME280;41875;55.806;38.082;2023-01-19T07:41:19;99364.34;;;2.68;70.87
55990;BME280;41875;55.806;38.082;2023-01-19T07:43:50;99352.59;;;2.25;72.32
55990;BME280;41875;55.806;38.082;2023-01-19T07:46:21;99353.78;;;2.45;71.09
55990;BME280;41875;55.806;38.082;2023-01-19T07:48:50;99353.44;;;2.25;71.88
55990;BME280;41875;55.806;38.082;2023-01-19T07:51:18;99346.09;;;2.31;71.83
55990;BME280;41875;55.806;38.082;2023-01-19T07:53:50;99366.81;;;2.58;71.45
55990;BME280;41875;55.806;38.082;2023-01-19T07:56:18;99405.31;;;2.56;71.14
55990;BME280;41875;55.806;38.082;2023-01-19T07:58:47;99412.72;;;2.62;71.14
55990;BME280;41875;55.806;38.082;2023-01-19T08:01:18;99401.38;;;2.74;70.66
55990;BME280;41875;55.806;38.082;2023-01-19T08:03:47;99413.75;;;2.59;71.65
55990;BME280;41875;55.806;38.082;2023-01-19T08:06:19;99415.81;;;2.67;71.49
55990;BME280;41875;55.806;38.082;2023-01-19T08:08:49;99415.59;;;2.95;69.94
55990;BME280;41875;55.806;38.082;2023-01-19T08:11:21;99418.66;;;2.27;72.50
55990;BME280;41875;55.806;38.082;2023-01-19T08:13:49;99397.88;;;2.25;72.90
55990;BME280;41875;55.806;38.082;2023-01-19T08:16:18;99384.53;;;2.41;72.71
55990;BME280;41875;55.806;38.082;2023-01-19T08:18:46;99416.34;;;2.35;72.84
55990;BME280;41875;55.806;38.082;2023-01-19T08:21:14;99414.03;;;2.43;72.55
55990;BME280;41875;55.806;38.082;2023-01-19T08:23:43;99421.16;;;2.41;72.77
55990;BME280;41875;55.806;38.082;2023-01-19T08:26:20;99424.88;;;2.50;72.51
55990;BME280;41875;55.806;38.082;2023-01-19T08:28:50;99403.34;;;2.95;70.61
55990;BME280;41875;55.806;38.082;2023-01-19T08:31:18;99416.59;;;2.19;73.19
55990;BME280;41875;55.806;38.082;2023-01-19T08:33:50;99414.25;;;2.40;73.16
55990;BME280;41875;55.806;38.082;2023-01-19T08:36:19;99432.84;;;2.73;72.12
55990;BME280;41875;55.806;38.082;2023-01-19T08:38:48;99425.28;;;2.57;72.25
55990;BME280;41875;55.806;38.082;2023-01-19T08:41:17;99435.94;;;2.91;70.65
55990;BME280;41875;55.806;38.082;2023-01-19T08:43:46;99431.50;;;2.67;71.88
55990;BME280;41875;55.806;38.082;2023-01-19T08:46:15;99433.34;;;2.78;71.76
55990;BME280;41875;55.806;38.082;2023-01-19T08:48:46;99452.22;;;2.70;71.67
55990;BME280;41875;55.806;38.082;2023-01-19T08:51:16;99440.06;;;3.18;70.15
55990;BME280;41875;55.806;38.082;2023-01-19T08:53:45;99449.22;;;2.88;70.80
55990;BME280;41875;55.806;38.082;2023-01-19T08:56:13;99442.38;;;2.74;71.90
55990;BME280;41875;55.806;38.082;2023-01-19T08:58:44;99452.63;;;3.01;71.07
55990;BME280;41875;55.806;38.082;2023-01-19T09:01:30;99449.75;;;2.93;70.53
55990;BME280;41875;55.806;38.082;2023-01-19T09:03:59;99453.84;;;2.60;71.98
55990;BME280;41875;55.806;38.082;2023-01-19T09:06:27;99440.81;;;2.96;70.82
55990;BME280;41875;55.806;38.082;2023-01-19T09:08:56;99452.56;;;2.66;71.81
55990;BME280;41875;55.806;38.082;2023-01-19T09:11:24;99453.41;;;3.26;69.55
55990;BME280;41875;55.806;38.082;2023-01-19T09:13:53;99445.38;;;3.05;70.92
55990;BME280;41875;55.806;38.082;2023-01-19T09:16:21;99443.91;;;3.61;68.62
55990;BME280;41875;55.806;38.082;2023-01-19T09:18:54;99447.69;;;3.10;69.86
55990;BME280;41875;55.806;38.082;2023-01-19T09:21:23;99440.69;;;2.97;69.68
55990;BME280;41875;55.806;38.082;2023-01-19T09:23:51;99435.00;;;3.28;68.78
55990;BME280;41875;55.806;38.082;2023-01-19T09:26:20;99451.84;;;3.12;69.63
55990;BME280;41875;55.806;38.082;2023-01-19T09:28:49;99448.50;;;3.10;69.82
55990;BME280;41875;55.806;38.082;2023-01-19T09:31:18;99460.38;;;3.39;69.01
55990;BME280;41875;55.806;38.082;2023-01-19T09:33:46;99446.03;;;3.67;67.46
55990;BME280;41875;55.806;38.082;2023-01-19T09:36:16;99446.66;;;3.35;68.68
55990;BME280;41875;55.806;38.082;2023-01-19T09:38:45;99449.09;;;3.49;67.95
55990;BME280;41875;55.806;38.082;2023-01-19T09:41:18;99450.59;;;3.29;68.61
55990;BME280;41875;55.806;38.082;2023-01-19T09:43:51;99446.78;;;3.33;68.34
55990;BME280;41875;55.806;38.082;2023-01-19T09:46:27;99423.63;;;3.04;69.70
55990;BME280;41875;55.806;38.082;2023-01-19T09:48:58;99410.84;;;3.24;68.79
55990;BME280;41875;55.806;38.082;2023-01-19T09:51:37;99413.59;;;3.34;68.47
55990;BME280;41875;55.806;38.082;2023-01-19T09:54:11;99401.69;;;2.94;69.56
55990;BME280;41875;55.806;38.082;2023-01-19T09:56:41;99399.31;;;2.91;70.33
55990;BME280;41875;55.806;38.082;2023-01-19T09:59:17;99428.50;;;3.09;69.64
55990;BME280;41875;55.806;38.082;2023-01-19T10:02:16;99433.56;;;2.99;70.22
55990;BME280;41875;55.806;38.082;2023-01-19T10:04:57;99418.22;;;2.95;70.06
55990;BME280;41875;55.806;38.082;2023-01-19T10:07:41;99421.97;;;3.15;69.33
55990;BME280;41875;55.806;38.082;2023-01-19T10:10:20;99411.88;;;2.62;71.09
55990;BME280;41875;55.806;38.082;2023-01-19T10:13:16;99417.41;;;3.30;69.45
55990;BME280;41875;55.806;38.082;2023-01-19T10:15:55;99421.34;;;2.38;71.75
55990;BME280;41875;55.806;38.082;2023-01-19T10:18:28;99428.84;;;3.04;70.58
55990;BME280;41875;55.806;38.082;2023-01-19T10:21:09;99427.78;;;3.43;69.20
55990;BME280;41875;55.806;38.082;2023-01-19T10:23:47;99421.19;;;3.26;69.11
55990;BME280;41875;55.806;38.082;2023-01-19T10:26:22;99439.31;;;2.80;70.47
55990;BME280;41875;55.806;38.082;2023-01-19T10:28:56;99424.22;;;3.08;69.81
55990;BME280;41875;55.806;38.082;2023-01-19T10:31:26;99413.13;;;3.40;69.14
55990;BME280;41875;55.806;38.082;2023-01-19T10:33:54;99420.38;;;3.25;69.52
55990;BME280;41875;55.806;38.082;2023-01-19T10:36:28;99424.00;;;2.87;70.76
55990;BME280;41875;55.806;38.082;2023-01-19T10:38:58;99433.41;;;2.65;71.13
55990;BME280;41875;55.806;38.082;2023-01-19T10:41:42;99420.88;;;2.82;71.02
55990;BME280;41875;55.806;38.082;2023-01-19T10:44:11;99437.44;;;2.82;71.06
55990;BME280;41875;55.806;38.082;2023-01-19T10:46:50;99445.94;;;2.97;70.49
55990;BME280;41875;55.806;38.082;2023-01-19T10:49:24;99421.06;;;2.92;70.25
55990;BME280;41875;55.806;38.082;2023-01-19T10:51:54;99410.59;;;2.67;71.61
55990;BME280;41875;55.806;38.082;2023-01-19T10:54:29;99416.53;;;2.94;70.86
55990;BME280;41875;55.806;38.082;2023-01-19T10:57:01;99433.31;;;2.91;71.01
55990;BME280;41875;55.806;38.082;2023-01-19T10:59:33;99431.19;;;2.72;71.21
55990;BME280;41875;55.806;38.082;2023-01-19T11:02:16;99421.31;;;3.24;70.05
55990;BME280;41875;55.806;38.082;2023-01-19T11:04:47;99416.78;;;3.26;69.43
55990;BME280;41875;55.806;38.082;2023-01-19T11:07:19;99436.88;;;3.14;70.06
55990;BME280;41875;55.806;38.082;2023-01-19T11:10:18;99428.28;;;2.88;71.27
55990;BME280;41875;55.806;38.082;2023-01-19T11:12:56;99432.53;;;3.02;70.60
55990;BME280;41875;55.806;38.082;2023-01-19T11:15:31;99438.19;;;3.20;69.63
55990;BME280;41875;55.806;38.082;2023-01-19T11:18:02;99421.63;;;3.19;69.33
55990;BME280;41875;55.806;38.082;2023-01-19T11:20:39;99441.97;;;3.51;68.88
55990;BME280;41875;55.806;38.082;2023-01-19T11:23:20;99428.69;;;3.30;69.08
55990;BME280;41875;55.806;38.082;2023-01-19T11:25:53;99451.31;;;2.58;72.01
55990;BME280;41875;55.806;38.082;2023-01-19T11:28:26;99458.31;;;2.71;71.34
55990;BME280;41875;55.806;38.082;2023-01-19T11:30:57;99452.41;;;3.04;70.40
55990;BME280;41875;55.806;38.082;2023-01-19T11:33:33;99456.59;;;3.18;69.37
55990;BME280;41875;55.806;38.082;2023-01-19T11:36:04;99466.94;;;2.84;70.81
55990;BME280;41875;55.806;38.082;2023-01-19T11:38:40;99467.19;;;2.93;71.15
55990;BME280;41875;55.806;38.082;2023-01-19T11:41:17;99471.06;;;2.63;71.41
55990;BME280;41875;55.806;38.082;2023-01-19T11:43:49;99480.47;;;2.15;73.07
55990;BME280;41875;55.806;38.082;2023-01-19T11:46:20;99477.84;;;3.02;70.90
55990;BME280;41875;55.806;38.082;2023-01-19T11:48:53;99460.47;;;3.01;70.47
55990;BME280;41875;55.806;38.082;2023-01-19T11:51:33;99470.19;;;3.24;69.36
55990;BME280;41875;55.806;38.082;2023-01-19T11:54:12;99467.72;;;3.22;69.36
55990;BME280;41875;55.806;38.082;2023-01-19T11:56:46;99475.84;;;3.06;69.81
55990;BME280;41875;55.806;38.082;2023-01-19T11:59:18;99492.09;;;2.98;70.34
55990;BME280;41875;55.806;38.082;2023-01-19T12:01:50;99480.72;;;3.11;69.79
55990;BME280;41875;55.806;38.082;2023-01-19T12:04:24;99500.28;;;2.94;70.36
55990;BME280;41875;55.806;38.082;2023-01-19T12:06:56;99509.38;;;3.01;69.66
55990;BME280;41875;55.806;38.082;2023-01-19T12:09:27;99500.63;;;2.39;71.35
55990;BME280;41875;55.806;38.082;2023-01-19T12:12:02;99494.41;;;2.66;71.58
55990;BME280;41875;55.806;38.082;2023-01-19T12:14:35;99484.06;;;3.13;69.68
55990;BME280;41875;55.806;38.082;2023-01-19T12:17:13;99475.78;;;2.95;69.94
55990;BME280;41875;55.806;38.082;2023-01-19T12:19:48;99488.13;;;3.17;69.46
55990;BME280;41875;55.806;38.082;2023-01-19T12:22:21;99486.97;;;3.21;68.73
55990;BME280;41875;55.806;38.082;2023-01-19T12:24:58;99489.31;;;3.13;69.06
55990;BME280;41875;55.806;38.082;2023-01-19T12:27:37;99500.50;;;2.53;71.30
55990;BME280;41875;55.806;38.082;2023-01-19T12:30:15;99503.00;;;2.55;71.47
55990;BME280;41875;55.806;38.082;2023-01-19T12:32:44;99513.19;;;3.08;69.79
55990;BME280;41875;55.806;38.082;2023-01-19T12:38:49;99511.91;;;3.38;68.62
55990;BME280;41875;55.806;38.082;2023-01-19T12:41:23;99534.81;;;3.23;68.82
55990;BME280;41875;55.806;38.082;2023-01-19T12:44:21;99530.13;;;2.91;69.61
55990;BME280;41875;55.806;38.082;2023-01-19T12:46:53;99520.81;;;2.37;71.47
55990;BME280;41875;55.806;38.082;2023-01-19T12:49:30;99541.81;;;2.98;69.85
55990;BME280;41875;55.806;38.082;2023-01-19T12:52:24;99514.38;;;2.67;70.53
55990;BME280;41875;55.806;38.082;2023-01-19T12:54:57;99526.78;;;2.89;69.95
55990;BME280;41875;55.806;38.082;2023-01-19T12:57:32;99527.31;;;2.81;69.90
55990;BME280;41875;55.806;38.082;2023-01-19T13:00:06;99531.69;;;2.94;69.50
55990;BME280;41875;55.806;38.082;2023-01-19T13:02:44;99529.91;;;2.94;69.60
55990;BME280;41875;55.806;38.082;2023-01-19T13:05:16;99527.09;;;2.84;70.36
55990;BME280;41875;55.806;38.082;2023-01-19T13:08:14;99529.28;;;3.15;69.00
55990;BME280;41875;55.806;38.082;2023-01-19T13:17:19;99509.47;;;2.62;70.59
55990;BME280;41875;55.806;38.082;2023-01-19T13:19:53;99502.97;;;2.18;71.97
55990;BME280;41875;55.806;38.082;2023-01-19T13:22:50;99516.69;;;2.58;70.55
55990;BME280;41875;55.806;38.082;2023-01-19T13:25:29;99533.34;;;2.44;70.98
55990;BME280;41875;55.806;38.082;2023-01-19T13:28:00;99510.25;;;3.13;68.86
55990;BME280;41875;55.806;38.082;2023-01-19T13:30:33;99497.53;;;2.95;68.83
55990;BME280;41875;55.806;38.082;2023-01-19T13:33:08;99512.63;;;2.92;69.00